createdAt,value
2019-03-16T00:00:09.001Z,7.80
2019-03-16T00:02:37.495Z,7.79
2019-03-16T00:05:06.840Z,7.79
2019-03-16T00:07:35.246Z,7.80
2019-03-16T00:10:04.420Z,7.82
2019-03-16T00:12:32.844Z,7.83
2019-03-16T00:15:01.311Z,7.89
2019-03-16T00:17:29.724Z,7.94
2019-03-16T00:19:58.161Z,7.98
2019-03-16T00:22:26.565Z,8.07
2019-03-16T00:24:54.973Z,8.18
2019-03-16T00:27:23.395Z,8.28
2019-03-16T00:29:51.788Z,8.33
2019-03-16T00:32:20.211Z,8.38
2019-03-16T00:34:48.635Z,8.44
2019-03-16T00:37:17.061Z,8.51
2019-03-16T00:39:45.466Z,8.52
2019-03-16T00:42:13.956Z,8.52
2019-03-16T00:44:42.377Z,8.52
2019-03-16T00:47:10.864Z,8.50
2019-03-16T00:49:39.252Z,8.47
2019-03-16T00:52:07.676Z,8.45
2019-03-16T00:54:36.074Z,8.37
2019-03-16T00:57:04.652Z,8.32
2019-03-16T00:59:33.092Z,8.28
2019-03-16T01:02:01.558Z,8.20
2019-03-16T01:04:29.974Z,8.14
2019-03-16T01:06:58.401Z,8.06
2019-03-16T01:09:26.788Z,8.01
2019-03-16T01:11:55.205Z,7.96
2019-03-16T01:14:23.606Z,7.99
2019-03-16T01:16:52.088Z,7.94
2019-03-16T01:19:20.505Z,7.95
2019-03-16T01:21:48.894Z,7.95
2019-03-16T01:24:17.308Z,5.89
2019-03-16T01:26:45.744Z,7.93
2019-03-16T01:29:14.262Z,7.89
2019-03-16T01:31:42.648Z,7.83
2019-03-16T01:34:11.066Z,7.81
2019-03-16T01:36:39.465Z,7.79
2019-03-16T01:39:08.563Z,7.74
2019-03-16T01:41:36.965Z,7.70
2019-03-16T01:44:05.604Z,7.72
2019-03-16T01:46:34.044Z,7.69
2019-03-16T01:49:02.521Z,7.63
2019-03-16T01:51:30.929Z,7.59
2019-03-16T01:53:59.329Z,7.60
2019-03-16T01:56:27.735Z,7.62
2019-03-16T01:58:56.240Z,7.59
2019-03-16T02:01:24.634Z,7.59
2019-03-16T02:03:53.050Z,7.57
2019-03-16T02:06:21.451Z,7.57
2019-03-16T02:08:49.859Z,7.51
2019-03-16T02:11:18.280Z,7.49
2019-03-16T02:13:46.750Z,7.47
2019-03-16T02:16:15.229Z,7.45
2019-03-16T02:18:43.749Z,7.42
2019-03-16T02:21:12.142Z,7.41
2019-03-16T02:23:40.568Z,7.40
2019-03-16T02:26:08.968Z,7.40
2019-03-16T02:28:37.399Z,7.39
2019-03-16T02:31:06.264Z,7.38
2019-03-16T02:33:34.649Z,7.35
2019-03-16T02:36:03.080Z,7.38
2019-03-16T02:38:31.480Z,7.33
2019-03-16T02:40:59.908Z,7.36
2019-03-16T02:43:28.403Z,7.35
2019-03-16T02:45:57.027Z,7.34
2019-03-16T02:48:25.433Z,7.32
2019-03-16T02:50:53.834Z,7.32
2019-03-16T02:53:22.261Z,7.28
2019-03-16T02:55:50.672Z,7.25
2019-03-16T02:58:19.081Z,7.25
2019-03-16T03:00:47.495Z,7.20
2019-03-16T03:03:28.704Z,7.21
2019-03-16T03:05:46.017Z,7.19
2019-03-16T03:08:14.432Z,7.17
2019-03-16T03:10:42.910Z,7.17
2019-03-16T03:13:13.534Z,7.17
2019-03-16T03:15:41.453Z,4.06
2019-03-16T03:18:09.936Z,7.17
2019-03-16T03:20:38.339Z,7.17
2019-03-16T03:23:06.759Z,7.18
2019-03-16T03:25:35.176Z,7.20
2019-03-16T03:28:03.674Z,7.18
2019-03-16T03:30:32.165Z,7.16
2019-03-16T03:33:00.631Z,7.16
2019-03-16T03:35:29.704Z,7.16
2019-03-16T03:37:58.258Z,7.16
2019-03-16T03:40:26.661Z,7.15
2019-03-16T03:42:55.092Z,7.16
2019-03-16T03:45:23.524Z,7.13
2019-03-16T03:47:51.962Z,7.11
2019-03-16T03:50:20.359Z,7.10
2019-03-16T03:52:48.775Z,7.08
2019-03-16T03:55:17.165Z,7.07
2019-03-16T03:57:45.664Z,7.11
2019-03-16T04:00:18.318Z,7.11
2019-03-16T04:02:46.973Z,7.09
2019-03-16T04:05:15.519Z,7.13
2019-03-16T04:07:43.996Z,7.12
2019-03-16T04:10:12.746Z,7.13
2019-03-16T04:12:41.167Z,7.14
2019-03-16T04:15:11.062Z,7.12
2019-03-16T04:17:39.542Z,7.11
2019-03-16T04:20:15.227Z,7.14
2019-03-16T04:22:43.698Z,7.15
2019-03-16T04:25:12.250Z,7.14
2019-03-16T04:27:40.690Z,7.16
2019-03-16T04:30:10.614Z,7.15
2019-03-16T04:32:39.043Z,7.14
2019-03-16T04:35:07.826Z,7.17
2019-03-16T04:37:36.257Z,7.17
2019-03-16T04:40:07.035Z,7.18
2019-03-16T04:42:35.551Z,7.17
2019-03-16T04:45:05.493Z,7.18
2019-03-16T04:47:33.914Z,7.17
2019-03-16T04:50:02.430Z,7.17
2019-03-16T04:52:30.851Z,7.17
2019-03-16T04:54:59.255Z,7.17
2019-03-16T04:57:27.677Z,7.19
2019-03-16T04:59:56.100Z,7.19
2019-03-16T05:02:24.572Z,7.20
2019-03-16T05:04:53.002Z,7.20
2019-03-16T05:07:21.434Z,7.21
2019-03-16T05:09:49.827Z,7.20
2019-03-16T05:12:18.247Z,7.21
2019-03-16T05:14:46.665Z,7.22
2019-03-16T05:17:15.079Z,7.21
2019-03-16T05:19:43.482Z,7.18
2019-03-16T05:22:11.902Z,7.17
2019-03-16T05:24:40.317Z,7.17
2019-03-16T05:27:08.725Z,7.17
2019-03-16T05:29:37.149Z,7.17
2019-03-16T05:32:05.636Z,7.17
2019-03-16T05:34:34.039Z,7.17
2019-03-16T05:37:02.522Z,7.16
2019-03-16T05:39:30.925Z,7.16
2019-03-16T05:41:59.355Z,7.16
2019-03-16T05:44:27.751Z,7.17
2019-03-16T05:46:56.160Z,7.18
2019-03-16T05:49:24.600Z,7.18
2019-03-16T05:51:52.999Z,7.17
2019-03-16T05:54:21.423Z,7.18
2019-03-16T05:56:49.830Z,7.19
2019-03-16T05:59:18.255Z,7.15
2019-03-16T06:01:46.676Z,7.15
2019-03-16T06:04:15.077Z,7.11
2019-03-16T06:06:43.520Z,7.11
2019-03-16T06:09:11.923Z,7.15
2019-03-16T06:11:40.333Z,7.11
2019-03-16T06:14:08.835Z,7.10
2019-03-16T06:16:37.252Z,7.11
2019-03-16T06:19:05.833Z,7.12
2019-03-16T06:21:34.239Z,7.14
2019-03-16T06:24:02.716Z,7.10
2019-03-16T06:26:31.135Z,7.10
2019-03-16T06:28:59.559Z,7.11
2019-03-16T06:31:27.983Z,7.08
2019-03-16T06:33:56.554Z,7.03
2019-03-16T06:36:24.990Z,7.04
2019-03-16T06:38:53.383Z,7.05
2019-03-16T06:41:21.839Z,7.05
2019-03-16T06:43:50.246Z,7.05
2019-03-16T06:46:18.678Z,7.08
2019-03-16T06:48:47.100Z,7.10
2019-03-16T06:51:15.504Z,7.12
2019-03-16T06:53:43.932Z,7.15
2019-03-16T06:56:12.341Z,7.17
2019-03-16T06:58:40.752Z,7.20
2019-03-16T07:01:09.255Z,7.21
2019-03-16T07:03:37.678Z,7.20
2019-03-16T07:06:06.075Z,7.21
2019-03-16T07:08:34.494Z,7.24
2019-03-16T07:11:03.090Z,7.26
2019-03-16T07:13:31.510Z,7.28
2019-03-16T07:15:59.992Z,7.31
2019-03-16T07:18:28.424Z,7.33
2019-03-16T07:20:56.886Z,7.36
2019-03-16T07:23:25.380Z,7.41
2019-03-16T07:25:53.933Z,7.47
2019-03-16T07:28:22.433Z,7.53
2019-03-16T07:30:50.896Z,7.60
2019-03-16T07:33:20.979Z,7.65
2019-03-16T07:35:49.357Z,7.70
2019-03-16T07:38:17.761Z,7.74
2019-03-16T07:40:46.194Z,7.78
2019-03-16T07:43:14.633Z,7.83
2019-03-16T07:45:43.059Z,7.97
2019-03-16T07:48:11.487Z,8.15
2019-03-16T07:50:39.876Z,8.30
2019-03-16T07:53:08.371Z,8.37
2019-03-16T07:55:36.768Z,8.44
2019-03-16T07:58:05.188Z,8.55
2019-03-16T08:00:33.603Z,8.64
2019-03-16T08:03:02.057Z,8.72
2019-03-16T08:05:30.536Z,8.81
2019-03-16T08:07:58.972Z,8.89
2019-03-16T08:10:27.413Z,8.94
2019-03-16T08:12:55.806Z,9.04
2019-03-16T08:15:24.225Z,9.07
2019-03-16T08:17:52.640Z,9.08
2019-03-16T08:20:21.132Z,9.07
2019-03-16T08:22:49.609Z,9.05
2019-03-16T08:25:18.104Z,9.05
2019-03-16T08:27:53.970Z,9.12
2019-03-16T08:30:16.834Z,9.11
2019-03-16T08:32:45.176Z,9.06
2019-03-16T08:35:13.660Z,9.08
2019-03-16T08:37:42.169Z,9.11
2019-03-16T08:40:11.623Z,9.09
2019-03-16T08:42:40.045Z,9.09
2019-03-16T08:45:10.001Z,9.11
2019-03-16T08:47:38.467Z,9.12
2019-03-16T08:50:09.233Z,9.15
2019-03-16T08:52:37.708Z,9.20
2019-03-16T08:55:08.166Z,9.25
2019-03-16T08:57:36.576Z,9.26
2019-03-16T09:00:11.072Z,9.25
2019-03-16T09:02:39.461Z,9.22
2019-03-16T09:05:08.571Z,9.23
2019-03-16T09:07:37.117Z,9.27
2019-03-16T09:10:09.659Z,9.22
2019-03-16T09:12:38.061Z,9.19
2019-03-16T09:15:09.522Z,9.17
2019-03-16T09:17:37.933Z,9.17
2019-03-16T09:20:08.388Z,9.19
2019-03-16T09:22:36.862Z,9.24
2019-03-16T09:25:07.806Z,9.22
2019-03-16T09:27:36.376Z,9.23
2019-03-16T09:30:08.042Z,9.29
2019-03-16T09:32:36.476Z,9.26
2019-03-16T09:35:05.845Z,9.23
2019-03-16T09:37:34.293Z,9.25
2019-03-16T09:40:02.694Z,9.27
2019-03-16T09:42:31.163Z,9.26
2019-03-16T09:44:59.603Z,9.27
2019-03-16T09:47:28.008Z,9.32
2019-03-16T09:49:56.433Z,9.39
2019-03-16T09:52:24.909Z,9.44
2019-03-16T09:54:53.467Z,9.50
2019-03-16T09:57:21.855Z,9.61
2019-03-16T09:59:50.282Z,9.62
2019-03-16T10:02:18.702Z,9.64
2019-03-16T10:04:47.136Z,9.69
2019-03-16T10:07:15.539Z,9.76
2019-03-16T10:09:43.976Z,9.79
2019-03-16T10:12:12.383Z,9.84
2019-03-16T10:14:40.803Z,9.89
2019-03-16T10:17:09.193Z,9.87
2019-03-16T10:19:37.633Z,9.93
2019-03-16T10:22:06.120Z,9.92
2019-03-16T10:24:34.516Z,9.99
2019-03-16T10:27:02.938Z,10.04
2019-03-16T10:29:31.411Z,10.08
2019-03-16T10:31:59.854Z,10.08
2019-03-16T10:34:28.243Z,10.08
2019-03-16T10:36:56.675Z,10.12
2019-03-16T10:39:25.085Z,10.07
2019-03-16T10:41:53.511Z,10.06
2019-03-16T10:44:21.939Z,10.15
2019-03-16T10:46:50.337Z,10.18
2019-03-16T10:49:18.812Z,10.21
2019-03-16T10:51:47.233Z,10.29
2019-03-16T10:54:15.675Z,10.26
2019-03-16T10:56:44.063Z,10.21
2019-03-16T10:59:12.512Z,10.18
2019-03-16T11:01:40.912Z,10.15
2019-03-16T11:04:09.402Z,10.08
2019-03-16T11:06:37.824Z,10.05
2019-03-16T11:09:07.163Z,10.12
2019-03-16T11:11:35.627Z,10.15
2019-03-16T11:14:04.134Z,10.19
2019-03-16T11:16:32.544Z,10.24
2019-03-16T11:19:00.980Z,10.28
2019-03-16T11:21:29.381Z,10.25
2019-03-16T11:23:57.779Z,10.27
2019-03-16T11:26:26.210Z,10.21
2019-03-16T11:28:54.601Z,10.17
2019-03-16T11:31:23.098Z,10.12
2019-03-16T11:33:51.573Z,10.16
2019-03-16T11:36:20.064Z,10.16
2019-03-16T11:38:48.490Z,10.10
2019-03-16T11:41:16.900Z,10.09
2019-03-16T11:43:45.313Z,10.02
2019-03-16T11:46:13.733Z,9.97
2019-03-16T11:48:42.135Z,10.09
2019-03-16T11:51:10.632Z,10.10
2019-03-16T11:53:39.050Z,10.08
2019-03-16T11:56:17.440Z,10.04
2019-03-16T11:58:37.637Z,10.01
2019-03-16T12:01:06.055Z,10.02
2019-03-16T12:03:34.534Z,9.96
2019-03-16T12:06:03.011Z,9.92
2019-03-16T12:08:31.405Z,9.91
2019-03-16T12:10:59.809Z,9.94
2019-03-16T12:13:28.211Z,9.95
2019-03-16T12:15:56.606Z,10.00
2019-03-16T12:18:25.083Z,10.00
2019-03-16T12:20:53.542Z,10.00
2019-03-16T12:23:21.931Z,9.93
2019-03-16T12:25:50.463Z,9.93
2019-03-16T12:28:18.921Z,9.90
2019-03-16T12:30:47.333Z,9.95
2019-03-16T12:33:15.873Z,9.97
2019-03-16T12:35:44.245Z,9.97
2019-03-16T12:38:12.643Z,9.95
2019-03-16T12:40:41.127Z,9.92
2019-03-16T12:43:09.590Z,9.90
2019-03-16T12:45:38.139Z,9.90
2019-03-16T12:48:06.635Z,10.04
2019-03-16T12:50:35.078Z,10.02
2019-03-16T12:53:03.504Z,9.98
2019-03-16T12:55:31.939Z,10.02
2019-03-16T12:58:00.339Z,10.01
2019-03-16T13:00:28.883Z,10.02
2019-03-16T13:02:57.342Z,10.00
2019-03-16T13:05:25.846Z,9.97
2019-03-16T13:07:54.275Z,9.91
2019-03-16T13:10:22.661Z,9.91
2019-03-16T13:12:51.157Z,9.91
2019-03-16T13:15:19.601Z,9.91
2019-03-16T13:17:48.017Z,9.95
2019-03-16T13:20:17.343Z,9.91
2019-03-16T13:22:45.791Z,9.89
2019-03-16T13:25:14.436Z,9.90
2019-03-16T13:27:42.954Z,9.89
2019-03-16T13:30:17.075Z,9.94
2019-03-16T13:32:45.505Z,9.99
2019-03-16T13:35:14.356Z,9.99
2019-03-16T13:37:42.869Z,10.00
2019-03-16T13:40:13.987Z,10.00
2019-03-16T13:42:42.384Z,9.92
2019-03-16T13:45:11.244Z,9.95
2019-03-16T13:47:39.763Z,9.99
2019-03-16T13:50:19.060Z,9.92
2019-03-16T13:52:47.741Z,9.98
2019-03-16T13:55:16.168Z,9.97
2019-03-16T13:57:44.582Z,9.93
2019-03-16T14:00:18.077Z,9.90
2019-03-16T14:02:46.466Z,9.91
2019-03-16T14:05:15.030Z,9.92
2019-03-16T14:07:43.702Z,9.87
2019-03-16T14:10:17.961Z,9.89
2019-03-16T14:12:46.369Z,9.93
2019-03-16T14:15:15.085Z,9.99
2019-03-16T14:17:43.776Z,9.97
2019-03-16T14:20:16.515Z,9.92
2019-03-16T14:22:44.940Z,9.93
2019-03-16T14:25:13.427Z,9.97
2019-03-16T14:27:41.900Z,9.97
2019-03-16T14:30:29.434Z,9.95
2019-03-16T14:32:48.571Z,9.98
2019-03-16T14:35:17.005Z,10.03
2019-03-16T14:37:45.452Z,9.97
2019-03-16T14:40:15.066Z,9.97
2019-03-16T14:42:43.681Z,9.95
2019-03-16T14:45:13.418Z,9.91
2019-03-16T14:47:41.882Z,9.94
2019-03-16T14:50:24.949Z,9.98
2019-03-16T14:52:53.444Z,9.92
2019-03-16T14:55:21.930Z,9.95
2019-03-16T14:57:50.361Z,9.92
2019-03-16T15:00:19.229Z,10.04
2019-03-16T15:02:47.718Z,9.95
2019-03-16T15:05:16.440Z,9.99
2019-03-16T15:07:45.085Z,9.95
2019-03-16T15:10:17.870Z,9.89
2019-03-16T15:12:46.382Z,9.86
2019-03-16T15:15:16.140Z,10.00
2019-03-16T15:17:44.711Z,10.04
2019-03-16T15:20:13.481Z,9.99
2019-03-16T15:22:42.015Z,10.08
2019-03-16T15:25:11.838Z,10.13
2019-03-16T15:27:40.420Z,10.22
2019-03-16T15:30:14.528Z,10.21
2019-03-16T15:32:43.020Z,10.19
2019-03-16T15:35:11.421Z,10.19
2019-03-16T15:37:39.890Z,10.17
2019-03-16T15:40:10.813Z,10.14
2019-03-16T15:42:39.310Z,10.15
2019-03-16T15:45:16.246Z,10.14
2019-03-16T15:47:44.733Z,10.15
2019-03-16T15:50:13.261Z,10.15
2019-03-16T15:52:41.765Z,10.15
2019-03-16T15:55:10.505Z,10.10
2019-03-16T15:57:42.205Z,10.12
2019-03-16T16:00:14.809Z,10.09
2019-03-16T16:02:43.355Z,10.12
2019-03-16T16:05:11.944Z,10.14
2019-03-16T16:07:40.436Z,10.11
2019-03-16T16:10:16.035Z,10.03
2019-03-16T16:12:44.561Z,10.00
2019-03-16T16:15:13.198Z,9.94
2019-03-16T16:17:41.767Z,9.89
2019-03-16T16:20:15.646Z,9.97
2019-03-16T16:22:44.163Z,10.01
2019-03-16T16:25:13.397Z,10.01
2019-03-16T16:27:41.888Z,10.04
2019-03-16T16:30:16.284Z,10.01
2019-03-16T16:32:47.496Z,10.02
2019-03-16T16:35:16.536Z,10.03
2019-03-16T16:37:45.041Z,10.04
2019-03-16T16:40:16.516Z,9.97
2019-03-16T16:42:44.980Z,9.97
2019-03-16T16:45:14.569Z,10.03
2019-03-16T16:47:43.121Z,9.98
2019-03-16T16:50:19.531Z,9.97
2019-03-16T16:52:48.107Z,10.02
2019-03-16T16:55:16.627Z,10.04
2019-03-16T16:57:45.073Z,10.00
2019-03-16T17:00:15.748Z,9.96
2019-03-16T17:02:44.329Z,9.93
2019-03-16T17:05:16.608Z,9.95
2019-03-16T17:07:45.885Z,9.89
2019-03-16T17:10:15.447Z,9.84
2019-03-16T17:12:44.342Z,9.77
2019-03-16T17:15:14.387Z,9.84
2019-03-16T17:17:42.843Z,9.91
2019-03-16T17:20:13.084Z,9.85
2019-03-16T17:22:41.649Z,9.77
2019-03-16T17:25:11.812Z,9.77
2019-03-16T17:27:40.224Z,9.92
2019-03-16T17:30:17.588Z,9.88
2019-03-16T17:32:46.083Z,9.84
2019-03-16T17:35:14.486Z,9.94
2019-03-16T17:37:42.952Z,9.88
2019-03-16T17:40:16.011Z,9.87
2019-03-16T17:42:44.657Z,9.93
2019-03-16T17:45:14.086Z,9.88
2019-03-16T17:47:42.754Z,9.82
2019-03-16T17:50:13.160Z,9.77
2019-03-16T17:52:41.885Z,9.67
2019-03-16T17:55:12.221Z,9.66
2019-03-16T17:57:40.815Z,9.69
2019-03-16T18:00:12.427Z,9.56
2019-03-16T18:02:50.515Z,9.51
2019-03-16T18:05:11.273Z,9.47
2019-03-16T18:07:39.732Z,9.43
2019-03-16T18:10:12.464Z,9.52
2019-03-16T18:12:40.951Z,9.59
2019-03-16T18:15:12.053Z,9.59
2019-03-16T18:17:40.619Z,9.58
2019-03-16T18:20:17.073Z,9.55
2019-03-16T18:22:44.531Z,9.51
2019-03-16T18:25:13.787Z,9.48
2019-03-16T18:27:42.429Z,9.45
2019-03-16T18:30:18.151Z,9.47
2019-03-16T18:32:46.556Z,9.46
2019-03-16T18:35:15.120Z,9.49
2019-03-16T18:37:43.850Z,9.51
2019-03-16T18:40:16.278Z,9.49
2019-03-16T18:42:44.752Z,9.55
2019-03-16T18:45:28.034Z,9.56
2019-03-16T18:47:56.511Z,9.58
2019-03-16T18:50:24.900Z,9.53
2019-03-16T18:52:53.330Z,9.47
2019-03-16T18:55:21.753Z,9.44
2019-03-16T18:57:50.147Z,9.44
2019-03-16T19:00:19.126Z,9.47
2019-03-16T19:02:47.532Z,9.52
2019-03-16T19:05:16.081Z,9.50
2019-03-16T19:07:44.679Z,9.44
2019-03-16T19:10:19.069Z,9.42
2019-03-16T19:12:47.611Z,9.49
2019-03-16T19:15:17.951Z,9.49
2019-03-16T19:17:58.240Z,9.51
2019-03-16T19:20:17.511Z,9.46
2019-03-16T19:22:46.146Z,9.45
2019-03-16T19:25:16.937Z,9.41
2019-03-16T19:27:45.581Z,9.43
2019-03-16T19:30:15.888Z,9.46
2019-03-16T19:32:44.805Z,9.53
2019-03-16T19:35:13.468Z,9.48
2019-03-16T19:37:41.873Z,9.41
2019-03-16T19:40:18.265Z,9.35
2019-03-16T19:42:47.414Z,9.40
2019-03-16T19:45:16.097Z,9.40
2019-03-16T19:47:44.571Z,9.43
2019-03-16T19:50:14.472Z,9.46
2019-03-16T19:52:42.950Z,9.47
2019-03-16T19:55:12.635Z,9.43
2019-03-16T19:57:41.104Z,9.41
2019-03-16T20:00:19.538Z,9.38
2019-03-16T20:02:51.479Z,9.35
2019-03-16T20:05:18.261Z,9.34
2019-03-16T20:07:46.696Z,9.34
2019-03-16T20:10:19.778Z,9.32
2019-03-16T20:12:48.409Z,9.28
2019-03-16T20:15:17.011Z,9.27
2019-03-16T20:17:45.435Z,9.24
2019-03-16T20:20:15.215Z,9.25
2019-03-16T20:22:43.750Z,9.20
2019-03-16T20:25:12.409Z,9.21
2019-03-16T20:27:40.879Z,9.19
2019-03-16T20:30:25.905Z,9.20
2019-03-16T20:32:48.517Z,9.18
2019-03-16T20:35:17.538Z,9.15
2019-03-16T20:37:45.958Z,9.15
2019-03-16T20:40:15.607Z,9.12
2019-03-16T20:42:44.177Z,9.09
2019-03-16T20:45:13.012Z,9.05
2019-03-16T20:47:41.562Z,9.09
2019-03-16T20:50:14.280Z,9.07
2019-03-16T20:52:42.837Z,9.04
2019-03-16T20:55:11.607Z,9.03
2019-03-16T20:57:40.100Z,8.98
2019-03-16T21:00:16.873Z,9.02
2019-03-16T21:02:45.444Z,9.03
2019-03-16T21:05:14.134Z,8.99
2019-03-16T21:07:42.717Z,8.95
2019-03-16T21:10:14.480Z,9.00
2019-03-16T21:12:43.091Z,8.96
2019-03-16T21:15:13.062Z,8.95
2019-03-16T21:17:41.508Z,8.96
2019-03-16T21:20:12.881Z,8.93
2019-03-16T21:22:41.490Z,8.92
2019-03-16T21:25:11.835Z,8.91
2019-03-16T21:27:40.400Z,8.89
2019-03-16T21:30:14.932Z,8.89
2019-03-16T21:32:43.442Z,8.88
2019-03-16T21:35:11.982Z,8.88
2019-03-16T21:37:40.486Z,8.86
2019-03-16T21:40:13.500Z,8.90
2019-03-16T21:42:42.017Z,8.91
2019-03-16T21:45:13.447Z,8.87
2019-03-16T21:47:41.938Z,8.88
2019-03-16T21:50:12.736Z,8.89
2019-03-16T21:52:44.152Z,8.89
2019-03-16T21:55:12.472Z,8.90
2019-03-16T21:57:41.016Z,8.88
2019-03-16T22:00:13.886Z,8.88
2019-03-16T22:02:42.434Z,8.88
2019-03-16T22:05:11.121Z,8.89
2019-03-16T22:07:39.622Z,8.92
2019-03-16T22:10:12.382Z,8.95
2019-03-16T22:12:40.846Z,8.95
2019-03-16T22:15:11.603Z,8.93
2019-03-16T22:17:40.113Z,8.94
2019-03-16T22:20:19.535Z,8.97
2019-03-16T22:22:48.042Z,9.01
2019-03-16T22:25:16.530Z,9.02
2019-03-16T22:27:45.023Z,9.08
2019-03-16T22:30:17.455Z,9.15
2019-03-16T22:32:45.901Z,9.19
2019-03-16T22:35:14.363Z,9.24
2019-03-16T22:37:42.861Z,9.21
2019-03-16T22:40:14.834Z,9.21
2019-03-16T22:42:43.319Z,9.22
2019-03-16T22:45:14.650Z,9.28
2019-03-16T22:47:43.106Z,9.28
2019-03-16T22:50:16.921Z,9.28
2019-03-16T22:52:45.486Z,9.26
2019-03-16T22:55:15.821Z,9.27
2019-03-16T22:57:44.353Z,9.28
2019-03-16T23:00:28.681Z,9.28
2019-03-16T23:02:57.088Z,9.32
2019-03-16T23:05:25.566Z,9.31
2019-03-16T23:07:54.079Z,9.34
2019-03-16T23:10:22.678Z,9.31
2019-03-16T23:12:51.326Z,9.31
2019-03-16T23:15:19.695Z,9.31
2019-03-16T23:17:48.102Z,9.41
2019-03-16T23:20:16.534Z,9.49
2019-03-16T23:22:44.928Z,9.55
2019-03-16T23:25:13.423Z,9.52
2019-03-16T23:27:41.914Z,9.50
2019-03-16T23:30:12.011Z,9.47
2019-03-16T23:32:40.423Z,9.48
2019-03-16T23:35:09.567Z,9.55
2019-03-16T23:37:38.154Z,9.60
2019-03-16T23:40:13.452Z,9.58
2019-03-16T23:42:41.931Z,9.55
2019-03-16T23:45:12.435Z,9.61
2019-03-16T23:47:40.979Z,9.63
2019-03-16T23:50:10.702Z,9.76
2019-03-16T23:52:39.181Z,9.69
2019-03-16T23:55:08.809Z,9.74
2019-03-16T23:57:37.251Z,9.69
